createdAt,value
2019-06-26T04:13:03.730Z,15.28
2019-06-26T04:15:42.614Z,16.62
2019-06-26T04:18:09.169Z,16.87
2019-06-26T04:20:40.996Z,16.52
2019-06-26T04:23:10.043Z,16.85
2019-06-26T04:25:46.563Z,16.65
2019-06-26T04:28:20.331Z,17.20
2019-06-26T04:30:49.371Z,17.85
2019-06-26T04:33:25.804Z,17.37
2019-06-26T04:35:57.327Z,17.65
2019-06-26T04:38:26.354Z,17.40
2019-06-26T04:40:57.691Z,17.25
2019-06-26T04:43:31.095Z,17.02
2019-06-26T04:46:03.725Z,17.75
2019-06-26T04:48:35.049Z,17.80
2019-06-26T04:51:11.054Z,17.87
2019-06-26T04:53:40.857Z,17.12
2019-06-26T04:56:16.565Z,17.35
2019-06-26T04:58:47.294Z,17.45
2019-06-26T05:01:20.883Z,17.90
2019-06-26T05:03:49.968Z,16.70
2019-06-26T05:06:19.059Z,17.42
2019-06-26T05:08:48.109Z,17.90
2019-06-26T05:11:17.321Z,17.17
2019-06-26T05:13:46.497Z,17.40
2019-06-26T05:16:25.537Z,17.87
2019-06-26T05:18:54.598Z,18.57
2019-06-26T05:21:23.764Z,16.52
2019-06-26T05:23:55.863Z,16.95
2019-06-26T05:26:27.323Z,16.52
2019-06-26T05:28:59.355Z,16.15
2019-06-26T05:31:33.239Z,16.93
2019-06-26T05:34:12.386Z,15.32
2019-06-26T05:36:41.591Z,15.78
2019-06-26T05:39:17.953Z,14.28
2019-06-26T05:41:47.108Z,14.55
2019-06-26T05:44:21.378Z,15.63
2019-06-26T05:46:55.793Z,15.20
2019-06-26T05:49:31.165Z,16.40
2019-06-26T05:52:02.177Z,14.80
2019-06-26T05:54:44.589Z,15.08
2019-06-26T05:57:16.130Z,14.63
2019-06-26T05:59:49.340Z,15.30
2019-06-26T06:02:23.612Z,14.83
2019-06-26T06:04:57.943Z,13.83
2019-06-26T06:07:36.893Z,14.58
2019-06-26T06:10:06.039Z,14.40
2019-06-26T06:12:45.537Z,13.68
2019-06-26T06:15:14.618Z,13.85
2019-06-26T06:17:43.748Z,13.68
2019-06-26T06:20:18.183Z,13.90
2019-06-26T06:22:51.680Z,13.88
2019-06-26T06:25:21.365Z,13.72
2019-06-26T06:27:50.473Z,13.90
2019-06-26T06:30:19.658Z,12.03
2019-06-26T06:32:54.509Z,12.98
2019-06-26T06:35:24.513Z,12.18
2019-06-26T06:37:59.927Z,12.28
2019-06-26T06:40:32.604Z,12.73
2019-06-26T06:43:01.703Z,11.63
2019-06-26T06:45:30.735Z,11.33
2019-06-26T06:47:59.836Z,12.20
2019-06-26T06:50:28.939Z,11.83
2019-06-26T06:53:00.514Z,10.93
2019-06-26T06:55:29.574Z,10.78
2019-06-26T06:57:59.682Z,12.53
2019-06-26T07:00:28.694Z,12.07
2019-06-26T07:03:01.804Z,11.40
2019-06-26T07:05:34.296Z,11.90
2019-06-26T07:08:05.452Z,11.50
2019-06-26T07:10:34.467Z,11.50
2019-06-26T07:13:03.517Z,11.05
2019-06-26T07:15:32.565Z,12.25
2019-06-26T07:18:05.101Z,11.70
2019-06-26T07:20:34.232Z,12.28
2019-06-26T07:23:03.447Z,11.88
2019-06-26T07:25:35.093Z,10.78
2019-06-26T07:28:08.575Z,10.82
2019-06-26T07:30:37.618Z,10.55
2019-06-26T07:33:08.716Z,10.63
2019-06-26T07:35:40.336Z,10.63
2019-06-26T07:38:09.386Z,10.30
2019-06-26T07:40:38.967Z,10.45
2019-06-26T07:43:08.689Z,9.88
2019-06-26T07:45:37.812Z,9.90
2019-06-26T07:48:18.806Z,10.10
2019-06-26T07:50:48.366Z,8.88
2019-06-26T07:53:18.087Z,7.65
2019-06-26T07:55:47.195Z,8.35
2019-06-26T07:58:16.168Z,8.10
2019-06-26T08:00:52.155Z,7.80
2019-06-26T08:03:25.837Z,8.50
2019-06-26T08:05:56.321Z,8.63
2019-06-26T08:08:25.964Z,7.70
2019-06-26T08:11:06.051Z,8.13
2019-06-26T08:13:33.536Z,7.92
2019-06-26T08:16:03.117Z,8.85
2019-06-26T08:18:32.463Z,8.43
2019-06-26T08:21:12.173Z,8.48
2019-06-26T08:23:30.927Z,7.55
2019-06-26T08:26:06.245Z,7.70
2019-06-26T08:28:35.323Z,8.00
2019-06-26T08:31:04.504Z,7.97
2019-06-26T08:33:33.598Z,7.72
2019-06-26T08:36:02.899Z,8.10
2019-06-26T08:38:35.460Z,8.25
2019-06-26T08:41:04.634Z,7.75
2019-06-26T08:43:37.320Z,8.73
2019-06-26T08:46:07.070Z,7.85
2019-06-26T08:48:40.224Z,8.78
2019-06-26T08:51:05.582Z,8.23
2019-06-26T08:53:35.101Z,8.18
2019-06-26T08:56:04.326Z,7.97
2019-06-26T08:58:35.980Z,7.55
2019-06-26T09:01:07.759Z,7.58
2019-06-26T09:03:36.800Z,7.75
2019-06-26T09:06:13.246Z,8.00
2019-06-26T09:08:50.193Z,8.15
2019-06-26T09:11:28.791Z,7.60
2019-06-26T09:14:04.720Z,7.50
2019-06-26T09:16:34.841Z,6.70
2019-06-26T09:19:06.361Z,6.90
2019-06-26T09:21:35.507Z,6.75
2019-06-26T09:24:09.468Z,7.45
2019-06-26T09:26:39.978Z,6.30
2019-06-26T09:29:12.841Z,6.62
2019-06-26T09:31:42.051Z,7.37
2019-06-26T09:34:11.019Z,7.03
2019-06-26T09:36:40.638Z,6.85
2019-06-26T09:39:16.539Z,7.50
2019-06-26T09:41:46.081Z,6.58
2019-06-26T09:44:20.536Z,7.22
2019-06-26T09:46:51.368Z,7.17
2019-06-26T09:49:22.999Z,6.08
2019-06-26T09:51:54.748Z,6.10
2019-06-26T09:54:31.877Z,6.62
2019-06-26T09:57:05.565Z,6.35
2019-06-26T09:59:35.222Z,6.22
2019-06-26T10:02:11.755Z,6.20
2019-06-26T10:04:40.767Z,6.10
2019-06-26T10:07:12.047Z,6.17
2019-06-26T10:09:41.112Z,6.20
2019-06-26T10:12:10.247Z,6.20
2019-06-26T10:14:47.377Z,6.50
2019-06-26T10:17:08.447Z,8.35
2019-06-26T10:19:37.451Z,6.05
2019-06-26T10:22:12.844Z,6.50
2019-06-26T10:24:48.528Z,6.55
2019-06-26T10:27:17.499Z,6.00
2019-06-26T10:29:46.496Z,6.30
2019-06-26T10:32:15.436Z,6.17
2019-06-26T10:34:51.577Z,6.28
2019-06-26T10:37:21.280Z,6.25
2019-06-26T10:39:57.999Z,6.28
2019-06-26T10:42:26.940Z,6.25
2019-06-26T10:44:55.947Z,6.30
2019-06-26T10:47:31.699Z,5.83
2019-06-26T10:50:00.634Z,6.28
2019-06-26T10:52:29.580Z,6.30
2019-06-26T10:54:58.612Z,6.50
2019-06-26T10:57:30.921Z,6.58
2019-06-26T11:00:02.752Z,7.95
2019-06-26T11:02:34.668Z,6.83
2019-06-26T11:05:05.667Z,6.00
2019-06-26T11:07:39.779Z,6.00
2019-06-26T11:10:08.790Z,6.33
2019-06-26T11:12:37.809Z,6.53
2019-06-26T11:15:11.738Z,6.30
2019-06-26T11:17:50.448Z,5.80
2019-06-26T11:20:19.409Z,6.55
2019-06-26T11:22:48.445Z,6.00
2019-06-26T11:25:18.157Z,6.05
2019-06-26T11:27:52.356Z,6.12
2019-06-26T11:30:21.890Z,6.05
2019-06-26T11:32:58.240Z,6.72
2019-06-26T11:35:27.227Z,6.08
2019-06-26T11:37:57.606Z,6.60
2019-06-26T11:40:26.658Z,6.45
2019-06-26T11:42:55.703Z,6.17
2019-06-26T11:45:24.694Z,6.55
2019-06-26T11:48:02.781Z,6.45
2019-06-26T11:50:37.093Z,6.15
2019-06-26T11:53:06.157Z,6.33
2019-06-26T11:55:35.066Z,6.30
2019-06-26T11:58:10.955Z,6.25
2019-06-26T12:00:41.724Z,5.92
2019-06-26T12:03:09.191Z,6.65
2019-06-26T12:05:38.375Z,5.92
2019-06-26T12:08:07.498Z,6.30
2019-06-26T12:10:42.532Z,6.60
2019-06-26T12:13:11.522Z,6.35
2019-06-26T12:15:40.630Z,6.25
2019-06-26T12:18:09.638Z,6.58
2019-06-26T12:20:38.642Z,6.20
2019-06-26T12:23:07.834Z,6.35
2019-06-26T12:25:44.198Z,7.00
2019-06-26T12:28:19.523Z,6.60
2019-06-26T12:30:48.418Z,6.37
2019-06-26T12:33:22.079Z,6.05
2019-06-26T12:35:55.385Z,6.42
2019-06-26T12:38:31.198Z,5.50
2019-06-26T12:41:05.306Z,6.65
2019-06-26T12:43:39.707Z,6.97
2019-06-26T12:46:18.124Z,6.28
2019-06-26T12:48:44.993Z,6.55
2019-06-26T12:51:17.119Z,6.45
2019-06-26T12:53:53.579Z,6.45
2019-06-26T12:56:28.425Z,6.25
2019-06-26T12:59:02.982Z,6.60
2019-06-26T13:01:35.733Z,6.85
2019-06-26T13:04:05.900Z,7.10
2019-06-26T13:06:38.828Z,6.58
2019-06-26T13:09:12.290Z,7.00
2019-06-26T13:11:41.928Z,6.67
2019-06-26T13:14:10.982Z,7.10
2019-06-26T13:16:42.054Z,7.10
2019-06-26T13:19:13.839Z,7.53
2019-06-26T13:21:49.726Z,7.25
2019-06-26T13:24:18.654Z,7.70
2019-06-26T13:26:54.403Z,7.00
2019-06-26T13:29:20.604Z,7.42
2019-06-26T13:31:54.655Z,7.50
2019-06-26T13:34:28.900Z,7.30
2019-06-26T13:37:07.308Z,7.33
2019-06-26T13:39:33.515Z,7.92
2019-06-26T13:42:08.027Z,7.47
2019-06-26T13:44:43.948Z,7.42
2019-06-26T13:47:12.918Z,7.80
2019-06-26T13:49:41.912Z,7.62
2019-06-26T13:52:11.458Z,7.90
2019-06-26T13:54:40.646Z,8.05
2019-06-26T13:57:15.941Z,8.15
2019-06-26T13:59:43.774Z,7.70
2019-06-26T14:02:20.054Z,8.28
2019-06-26T14:04:49.088Z,7.85
2019-06-26T14:07:18.070Z,8.30
2019-06-26T14:09:52.640Z,8.15
2019-06-26T14:12:25.081Z,8.33
2019-06-26T14:14:58.186Z,7.95
2019-06-26T14:17:27.715Z,7.75
2019-06-26T14:19:56.891Z,7.80
2019-06-26T14:22:32.210Z,7.17
2019-06-26T14:25:01.148Z,7.58
2019-06-26T14:27:35.231Z,8.03
2019-06-26T14:30:04.823Z,8.23
2019-06-26T14:32:39.460Z,7.65
2019-06-26T14:35:08.543Z,7.35
2019-06-26T14:37:37.658Z,8.05
2019-06-26T14:40:15.606Z,8.30
2019-06-26T14:42:50.173Z,7.65
2019-06-26T14:45:19.153Z,7.62
2019-06-26T14:47:50.124Z,7.40
2019-06-26T14:50:24.108Z,7.58
2019-06-26T14:52:53.106Z,7.42
2019-06-26T14:55:22.147Z,7.40
2019-06-26T14:57:54.082Z,7.28
2019-06-26T15:00:29.397Z,7.55
2019-06-26T15:02:58.402Z,7.55
2019-06-26T15:05:27.335Z,7.62
2019-06-26T15:07:56.284Z,7.58
2019-06-26T15:10:25.249Z,7.83
2019-06-26T15:12:54.189Z,7.45
2019-06-26T15:15:23.671Z,8.25
2019-06-26T15:17:52.818Z,8.20
2019-06-26T15:20:21.835Z,7.75
2019-06-26T15:22:50.869Z,8.08
2019-06-26T15:25:19.830Z,8.00
2019-06-26T15:27:52.831Z,8.10
2019-06-26T15:30:21.874Z,7.70
2019-06-26T15:32:50.995Z,7.78
2019-06-26T15:35:20.003Z,7.75
2019-06-26T15:37:49.503Z,8.15
2019-06-26T15:40:18.980Z,7.62
2019-06-26T15:42:49.046Z,7.55
2019-06-26T15:45:22.625Z,7.42
2019-06-26T15:47:51.621Z,6.90
2019-06-26T15:50:27.675Z,6.97
2019-06-26T15:52:57.160Z,7.15
2019-06-26T15:55:27.239Z,7.00
2019-06-26T15:57:59.140Z,7.30
2019-06-26T16:00:28.103Z,6.85
2019-06-26T16:02:57.170Z,6.70
2019-06-26T16:05:29.527Z,7.12
2019-06-26T16:07:58.525Z,15.08
2019-06-26T16:10:27.753Z,7.20
2019-06-26T16:12:56.786Z,6.87
2019-06-26T16:15:25.766Z,7.12
2019-06-26T16:18:01.483Z,6.40
2019-06-26T16:20:40.333Z,6.70
2019-06-26T16:23:09.342Z,6.50
2019-06-26T16:25:53.301Z,6.15
2019-06-26T16:28:22.311Z,6.72
2019-06-26T16:30:53.154Z,6.85
2019-06-26T16:33:26.984Z,6.70
2019-06-26T16:35:56.079Z,6.12
2019-06-26T16:38:25.089Z,6.37
2019-06-26T16:40:54.143Z,6.70
2019-06-26T16:43:36.487Z,5.80
2019-06-26T16:46:10.882Z,6.92
2019-06-26T16:48:49.374Z,7.05
2019-06-26T16:51:32.591Z,6.00
2019-06-26T16:54:04.635Z,7.20
2019-06-26T16:56:37.930Z,6.50
2019-06-26T16:59:14.435Z,6.03
2019-06-26T17:01:43.825Z,6.47
2019-06-26T17:04:21.425Z,6.08
2019-06-26T17:06:54.913Z,5.53
2019-06-26T17:09:28.415Z,6.40
2019-06-26T17:12:00.798Z,5.90
2019-06-26T17:14:30.073Z,8.00
2019-06-26T17:16:59.681Z,7.10
2019-06-26T17:19:31.855Z,7.10
2019-06-26T17:22:07.526Z,6.55
2019-06-26T17:24:37.405Z,6.12
2019-06-26T17:27:08.963Z,6.20
2019-06-26T17:29:41.932Z,6.00
2019-06-26T17:32:12.069Z,5.50
2019-06-26T17:34:45.187Z,6.15
2019-06-26T17:37:14.659Z,5.20
2019-06-26T17:39:45.295Z,5.00
2019-06-26T17:42:14.604Z,5.20
2019-06-26T17:44:50.888Z,5.28
2019-06-26T17:47:22.391Z,6.15
2019-06-26T17:49:56.032Z,4.60
2019-06-26T17:52:28.675Z,4.47
2019-06-26T17:54:59.917Z,4.58
2019-06-26T17:57:30.509Z,4.60
2019-06-26T18:00:01.831Z,4.37
2019-06-26T18:02:31.931Z,4.42
2019-06-26T18:05:07.180Z,4.37
2019-06-26T18:07:36.634Z,3.85
2019-06-26T18:10:08.211Z,4.30
2019-06-26T18:12:40.074Z,4.62
2019-06-26T18:15:09.619Z,3.98
2019-06-26T18:17:39.873Z,3.70
2019-06-26T18:20:09.005Z,3.77
2019-06-26T18:22:41.406Z,3.85
2019-06-26T18:25:11.301Z,4.28
2019-06-26T18:27:40.447Z,4.03
2019-06-26T18:30:10.863Z,3.90
2019-06-26T18:32:42.166Z,4.22
2019-06-26T18:35:12.639Z,4.50
2019-06-26T18:37:43.897Z,4.60
2019-06-26T18:40:13.963Z,4.85
2019-06-26T18:42:45.241Z,5.60
2019-06-26T18:45:15.446Z,4.50
2019-06-26T18:47:45.479Z,5.05
2019-06-26T18:50:15.387Z,4.40
2019-06-26T18:52:52.333Z,4.50
2019-06-26T18:55:21.487Z,4.58
2019-06-26T18:57:50.812Z,5.15
2019-06-26T19:00:24.957Z,4.75
2019-06-26T19:02:54.089Z,4.72
2019-06-26T19:05:23.095Z,5.60
2019-06-26T19:07:54.542Z,5.33
2019-06-26T19:10:24.000Z,5.33
2019-06-26T19:12:54.991Z,4.90
2019-06-26T19:15:24.203Z,5.20
2019-06-26T19:17:55.269Z,5.20
2019-06-26T19:20:27.282Z,5.65
2019-06-26T19:22:56.801Z,5.03
2019-06-26T19:25:27.948Z,4.83
2019-06-26T19:27:57.460Z,5.53
2019-06-26T19:30:26.699Z,5.10
2019-06-26T19:32:55.910Z,5.10
2019-06-26T19:35:24.937Z,4.90
2019-06-26T19:37:54.205Z,6.80
2019-06-26T19:40:28.580Z,5.83
2019-06-26T19:42:58.832Z,5.30
2019-06-26T19:45:27.811Z,5.97
2019-06-26T19:47:56.855Z,5.85
2019-06-26T19:50:25.880Z,5.55
2019-06-26T19:52:56.202Z,5.60
2019-06-26T19:55:26.719Z,5.40
2019-06-26T19:57:55.797Z,5.58
2019-06-26T20:00:26.057Z,5.28
2019-06-26T20:02:55.127Z,5.45
2019-06-26T20:05:25.905Z,6.55
2019-06-26T20:07:57.181Z,5.25
2019-06-26T20:10:29.061Z,5.50
2019-06-26T20:13:00.479Z,5.50
2019-06-26T20:15:30.155Z,4.87
2019-06-26T20:18:03.952Z,5.55
2019-06-26T20:20:31.631Z,5.00
2019-06-26T20:23:00.980Z,4.72
2019-06-26T20:25:31.899Z,4.97
2019-06-26T20:28:14.313Z,5.12
2019-06-26T20:33:57.355Z,4.35
2019-06-26T20:36:27.334Z,4.70
2019-06-26T20:38:58.883Z,5.17
2019-06-26T20:41:28.040Z,4.70
2019-06-26T20:44:03.975Z,5.08
2019-06-26T20:46:35.854Z,4.42
2019-06-26T20:49:06.544Z,4.92
2019-06-26T20:51:41.928Z,4.92
2019-06-26T20:54:20.829Z,4.90
2019-06-26T20:56:57.422Z,4.75
2019-06-26T20:59:32.623Z,4.97
2019-06-26T21:02:03.095Z,4.75
2019-06-26T21:04:34.324Z,5.17
2019-06-26T21:07:03.475Z,4.62
2019-06-26T21:09:34.257Z,5.50
2019-06-26T21:12:06.985Z,5.10
2019-06-26T21:14:36.465Z,4.80
2019-06-26T21:17:06.002Z,5.17
2019-06-26T21:19:35.191Z,4.78
2019-06-26T21:22:11.330Z,5.00
2019-06-26T21:24:40.551Z,4.87
2019-06-26T21:27:09.726Z,4.95
2019-06-26T21:29:47.285Z,4.62
2019-06-26T21:32:16.629Z,4.90
2019-06-26T21:34:45.997Z,4.97
2019-06-26T21:37:16.649Z,4.55
2019-06-26T21:39:46.619Z,4.40
2019-06-26T21:42:16.176Z,4.30
2019-06-26T21:44:46.691Z,5.00
2019-06-26T21:47:20.634Z,4.70
2019-06-26T21:52:29.854Z,4.35
2019-06-26T21:54:59.525Z,4.75
2019-06-26T21:57:29.848Z,4.40
2019-06-26T21:59:59.258Z,4.55
2019-06-26T22:02:35.558Z,4.03
2019-06-26T22:05:11.756Z,4.53
2019-06-26T22:07:41.443Z,3.92
2019-06-26T22:10:12.124Z,4.47
2019-06-26T22:12:46.669Z,4.22
2019-06-26T22:15:16.602Z,3.92
2019-06-26T22:17:51.978Z,4.37
2019-06-26T22:20:26.732Z,4.40
2019-06-26T22:22:55.917Z,4.45
2019-06-26T22:25:31.012Z,4.00
2019-06-26T22:28:00.835Z,4.03
2019-06-26T22:30:36.508Z,4.22
2019-06-26T22:33:06.347Z,4.62
2019-06-26T22:35:35.998Z,3.70
2019-06-26T22:38:07.024Z,4.22
2019-06-26T22:40:44.275Z,4.20
2019-06-26T22:43:13.373Z,3.92
2019-06-26T22:45:46.145Z,4.00
2019-06-26T22:48:21.475Z,3.98
2019-06-26T22:50:51.096Z,3.80
2019-06-26T22:53:20.965Z,4.17
2019-06-26T22:56:07.170Z,4.28
2019-06-26T22:58:34.759Z,4.50
2019-06-26T23:01:09.334Z,4.12
2019-06-26T23:03:43.269Z,4.80
2019-06-26T23:06:18.660Z,3.95
2019-06-26T23:08:48.345Z,4.17
2019-06-26T23:11:18.179Z,4.67
2019-06-26T23:13:53.869Z,4.45
2019-06-26T23:16:26.264Z,4.62
2019-06-26T23:18:59.536Z,4.50
2019-06-26T23:21:35.219Z,4.42
2019-06-26T23:24:10.145Z,4.75
2019-06-26T23:26:48.162Z,5.42
2019-06-26T23:29:17.574Z,4.58
2019-06-26T23:31:52.165Z,5.75
2019-06-26T23:34:21.784Z,4.90
2019-06-26T23:36:51.744Z,5.03
2019-06-26T23:39:27.926Z,5.28
2019-06-26T23:42:04.195Z,4.90
2019-06-26T23:44:36.992Z,5.05
2019-06-26T23:47:09.653Z,5.70
2019-06-26T23:49:38.928Z,5.80
2019-06-26T23:52:08.225Z,5.92
2019-06-26T23:54:37.900Z,5.65
2019-06-26T23:57:07.138Z,6.15
2019-06-26T23:59:36.498Z,6.30
